Time;durP1;ratioP1;P1;durP2;ratioP2;P2;SDS_P1;SDS_P2;PMS_P1;PMS_P2;Temp;Humidity;BMP_temperature;BMP_pressure;BME280_temperature;BME280_humidity;BME280_pressure;Samples;Min_cycle;Max_cycle;Signal;HPM_P1;HPM_P2
2023/02/04 00:00:13;;;;;;;2.90;1.37;;;;;;;10.12;95.89;101590.50;5074975;28;20457;-52
2023/02/04 00:02:40;;;;;;;0.73;0.60;;;;;;;10.12;97.38;101593.16;5074804;28;20533;-53
2023/02/04 00:05:08;;;;;;;7.83;0.83;;;;;;;10.04;97.76;101595.00;5074933;28;20552;-53
2023/02/04 00:07:35;;;;;;;9.40;1.07;;;;;;;10.37;96.47;101600.13;5074647;28;20827;-53
2023/02/04 00:10:03;;;;;;;0.93;0.60;;;;;;;10.42;95.45;101601.91;5075168;28;20481;-53
2023/02/04 00:12:30;;;;;;;0.77;0.60;;;;;;;10.26;96.15;101612.59;5061167;28;20466;-53
2023/02/04 00:14:56;;;;;;;1.17;1.07;;;;;;;10.28;96.07;101621.47;5074539;28;20477;-53
2023/02/04 00:17:23;;;;;;;2.63;0.60;;;;;;;10.33;95.84;101618.78;5074670;28;20449;-53
2023/02/04 00:19:49;;;;;;;1.40;1.30;;;;;;;10.43;96.06;101614.31;5074884;28;20453;-53
2023/02/04 00:22:15;;;;;;;7.70;0.73;;;;;;;10.34;96.34;101634.72;5074613;28;20446;-52
2023/02/04 00:24:47;;;;;;;1.53;0.77;;;;;;;10.19;96.03;101637.44;5074496;28;20466;-53
2023/02/04 00:27:13;;;;;;;1.90;1.03;;;;;;;10.32;95.89;101636.50;5074213;28;20464;-53
2023/02/04 00:29:40;;;;;;;3.80;0.90;;;;;;;10.23;96.33;101630.34;5074535;28;20507;-53
2023/02/04 00:32:06;;;;;;;3.90;1.47;;;;;;;10.04;97.44;101625.13;5074293;28;20955;-53
2023/02/04 00:34:33;;;;;;;0.43;0.43;;;;;;;10.27;97.30;101638.28;5074404;28;20470;-53
2023/02/04 00:37:00;;;;;;;0.70;0.70;;;;;;;10.21;97.41;101641.00;5074332;28;20494;-53
2023/02/04 00:39:26;;;;;;;10.60;1.00;;;;;;;10.28;97.06;101645.41;5074142;28;20460;-53
2023/02/04 00:41:52;;;;;;;2.60;2.27;;;;;;;10.11;97.25;101641.88;5073880;28;20450;-53
2023/02/04 00:44:19;;;;;;;1.43;0.50;;;;;;;10.33;96.56;101642.72;5074211;28;20982;-53
2023/02/04 00:46:47;;;;;;;24.53;1.10;;;;;;;10.27;96.69;101645.38;5073058;28;20446;-52
2023/02/04 00:49:13;;;;;;;0.50;0.50;;;;;;;10.18;96.81;101637.44;5062827;28;20452;-52
2023/02/04 00:51:45;;;;;;;0.67;0.50;;;;;;;10.25;96.70;101649.81;5073995;28;20454;-53
2023/02/04 00:54:12;;;;;;;2.53;0.70;;;;;;;10.30;95.85;101651.59;5073629;28;20470;-53
2023/02/04 00:56:38;;;;;;;5.40;0.57;;;;;;;10.18;96.83;101648.94;5073966;28;20498;-52
2023/02/04 00:59:05;;;;;;;1.10;0.93;;;;;;;10.13;98.06;101652.50;5074248;28;20495;-52
2023/02/04 01:01:31;;;;;;;2.40;0.60;;;;;;;10.04;97.91;101654.34;5073438;28;20454;-53
2023/02/04 01:03:58;;;;;;;0.50;0.50;;;;;;;9.97;98.25;101659.66;5070087;28;20470;-53
2023/02/04 01:06:24;;;;;;;6.53;1.43;;;;;;;9.94;98.03;101657.91;5063846;28;20446;-53
2023/02/04 01:08:51;;;;;;;5.87;0.40;;;;;;;10.00;97.92;101668.50;5073267;28;21024;-53
2023/02/04 01:11:18;;;;;;;5.73;1.17;;;;;;;9.86;98.51;101677.41;5073755;28;20489;-53
2023/02/04 01:13:45;;;;;;;8.90;0.70;;;;;;;9.99;98.88;101671.16;5073567;28;20521;-53
2023/02/04 01:16:12;;;;;;;0.50;0.30;;;;;;;10.23;97.64;101668.44;5073710;28;20535;-53
2023/02/04 01:18:39;;;;;;;2.40;0.70;;;;;;;10.26;96.38;101670.19;5073348;28;20482;-53
2023/02/04 01:21:05;;;;;;;5.30;0.50;;;;;;;9.96;98.03;101673.84;5072798;28;20942;-53
2023/02/04 01:23:32;;;;;;;2.53;0.40;;;;;;;9.99;97.20;101677.34;5073238;28;20539;-53
2023/02/04 01:25:58;;;;;;;5.50;2.13;;;;;;;9.66;97.26;101683.66;5073624;28;20821;-52
2023/02/04 01:28:25;;;;;;;0.90;0.90;;;;;;;9.71;95.68;101691.63;5073387;28;20463;-52
2023/02/04 01:30:51;;;;;;;14.10;1.33;;;;;;;9.61;95.78;101695.19;5073390;28;20865;-53
2023/02/04 01:33:17;;;;;;;0.90;0.90;;;;;;;9.49;96.01;101691.66;5073155;28;20600;-52
2023/02/04 01:35:44;;;;;;;2.00;1.10;;;;;;;9.53;96.18;101696.97;5073079;28;20495;-54
2023/02/04 01:38:10;;;;;;;2.80;1.60;;;;;;;9.75;95.88;101696.06;5073086;28;20450;-54
2023/02/04 01:40:37;;;;;;;1.23;0.80;;;;;;;9.57;97.18;101696.06;5072997;28;20450;-53
2023/02/04 01:43:04;;;;;;;9.67;1.37;;;;;;;9.83;96.16;101712.81;5073047;28;20465;-53
2023/02/04 01:45:34;;;;;;;0.87;0.87;;;;;;;9.79;96.67;101711.06;5073206;28;20448;-52
2023/02/04 01:48:03;;;;;;;0.57;0.50;;;;;;;9.89;96.52;101727.88;5067237;28;20456;-52
2023/02/04 01:50:29;;;;;;;6.83;1.30;;;;;;;9.85;97.70;101726.09;5072894;28;20457;-52
2023/02/04 01:52:56;;;;;;;0.73;0.40;;;;;;;9.69;97.62;101730.56;5072551;28;20445;-54
2023/02/04 01:55:26;;;;;;;1.80;1.70;;;;;;;9.69;98.06;101726.13;5072910;28;20445;-52
2023/02/04 01:57:54;;;;;;;0.73;0.60;;;;;;;9.52;98.40;101722.63;5072765;28;20938;-52
2023/02/04 02:00:24;;;;;;;1.07;0.50;;;;;;;9.53;98.60;101726.16;5072892;28;20528;-53
2023/02/04 02:02:52;;;;;;;21.03;1.03;;;;;;;9.70;97.71;101721.72;5072597;28;21001;-52
2023/02/04 02:05:26;;;;;;;8.50;0.67;;;;;;;9.58;98.34;101740.31;5072816;28;20450;-52
2023/02/04 02:07:56;;;;;;;0.90;0.60;;;;;;;9.76;98.18;101740.31;5072557;28;20839;-53
2023/02/04 02:10:22;;;;;;;0.40;0.40;;;;;;;9.67;99.01;101746.50;5072721;28;20457;-53
2023/02/04 02:12:49;;;;;;;1.50;0.93;;;;;;;9.46;100.00;101743.88;5072736;28;20465;-53
2023/02/04 02:15:17;;;;;;;0.50;0.40;;;;;;;9.46;99.96;101744.75;5067348;22;20491;-58
2023/02/04 02:17:44;;;;;;;6.23;2.17;;;;;;;9.30;100.00;101753.59;5043338;28;20446;-58
2023/02/04 02:20:14;;;;;;;5.80;0.73;;;;;;;9.19;100.00;101744.75;5039587;28;20454;-60
2023/02/04 02:23:21;;;;;;;0.40;0.30;;;;;;;9.27;100.00;101747.41;5044510;28;20792;-57
2023/02/04 02:25:49;;;;;;;2.93;0.67;;;;;;;9.40;100.00;101743.88;4990920;28;20447;-57
2023/02/04 02:28:21;;;;;;;7.10;0.60;;;;;;;9.37;100.00;101739.44;5028931;28;20449;-57
2023/02/04 02:30:49;;;;;;;0.57;0.57;;;;;;;9.35;100.00;101733.25;5024424;28;20486;-57
2023/02/04 02:33:18;;;;;;;9.20;1.30;;;;;;;9.36;100.00;101737.69;5018200;28;20452;-57
2023/02/04 02:35:49;;;;;;;0.83;0.83;;;;;;;9.46;100.00;101749.19;5021550;28;20488;-57
2023/02/04 02:38:17;;;;;;;3.30;1.43;;;;;;;9.53;100.00;101753.59;5026532;28;20972;-57
2023/02/04 02:40:45;;;;;;;0.30;0.20;;;;;;;9.26;100.00;101749.16;5025580;28;20448;-57
2023/02/04 02:43:16;;;;;;;8.23;1.00;;;;;;;9.43;100.00;101749.16;5019402;28;20455;-57
2023/02/04 02:45:43;;;;;;;7.53;1.23;;;;;;;9.34;100.00;101750.06;5020610;28;20459;-63
2023/02/04 02:48:10;;;;;;;0.97;0.57;;;;;;;9.34;100.00;101744.75;5025483;28;20464;-58
2023/02/04 02:50:37;;;;;;;0.73;0.73;;;;;;;9.20;100.00;101754.50;5025701;28;20459;-57
2023/02/04 02:53:09;;;;;;;0.60;0.33;;;;;;;9.39;100.00;101752.72;5019664;28;20456;-58
2023/02/04 02:55:35;;;;;;;7.37;2.20;;;;;;;9.47;100.00;101746.53;5025582;28;20478;-57
2023/02/04 02:58:02;;;;;;;0.50;0.50;;;;;;;9.43;100.00;101758.00;5021019;28;20968;-61
2023/02/04 03:00:29;;;;;;;0.53;0.43;;;;;;;9.31;100.00;101765.97;5020106;28;20501;-58
2023/02/04 03:02:59;;;;;;;0.50;0.40;;;;;;;9.36;100.00;101760.69;5024872;28;20487;-58
2023/02/04 03:05:29;;;;;;;2.03;0.80;;;;;;;9.26;100.00;101761.56;5029072;28;20490;-58
2023/02/04 03:07:55;;;;;;;0.53;0.53;;;;;;;9.22;100.00;101758.03;5032965;28;20448;-58
2023/02/04 03:10:22;;;;;;;0.63;0.63;;;;;;;9.23;100.00;101756.25;5020313;28;20533;-58
2023/02/04 03:12:48;;;;;;;0.60;0.30;;;;;;;9.15;100.00;101756.25;5024394;28;20957;-58
2023/02/04 03:15:15;;;;;;;3.13;1.37;;;;;;;9.02;100.00;101768.59;5025443;28;20479;-57
2023/02/04 03:17:43;;;;;;;4.00;1.07;;;;;;;8.90;100.00;101773.88;5021133;28;20506;-57
2023/02/04 03:20:12;;;;;;;5.60;0.60;;;;;;;9.10;100.00;101771.28;5029104;28;20449;-57
2023/02/04 03:22:39;;;;;;;3.87;0.80;;;;;;;9.15;100.00;101765.06;5022859;28;20455;-58
2023/02/04 03:25:06;;;;;;;12.33;1.23;;;;;;;9.12;100.00;101778.34;5018831;28;20521;-58
2023/02/04 03:27:32;;;;;;;0.30;0.20;;;;;;;8.98;100.00;101782.75;5022010;28;20448;-57
2023/02/04 03:29:58;;;;;;;1.77;0.57;;;;;;;9.13;100.00;101785.41;5025320;28;20507;-57
2023/02/04 03:32:25;;;;;;;0.93;0.93;;;;;;;9.13;100.00;101793.38;5021923;28;20540;-57
2023/02/04 03:34:51;;;;;;;1.33;0.97;;;;;;;9.06;100.00;101788.97;5028475;28;20483;-57
2023/02/04 03:37:18;;;;;;;2.40;0.43;;;;;;;8.82;100.00;101797.72;5022160;28;20492;-58
2023/02/04 03:39:44;;;;;;;1.63;1.00;;;;;;;8.99;100.00;101802.19;5018683;28;20474;-57
2023/02/04 03:42:11;;;;;;;7.20;0.60;;;;;;;8.93;100.00;101811.03;5021691;28;20449;-58
2023/02/04 03:44:37;;;;;;;9.20;0.77;;;;;;;8.75;100.00;101803.00;5027613;28;20477;-58
2023/02/04 03:47:03;;;;;;;0.57;0.50;;;;;;;8.85;100.00;101810.09;5025872;28;20447;-58
2023/02/04 03:49:31;;;;;;;1.00;0.70;;;;;;;8.86;100.00;101817.19;5025517;28;20463;-58
2023/02/04 03:51:57;;;;;;;1.80;0.83;;;;;;;8.81;100.00;101806.56;5026265;28;20486;-58
2023/02/04 03:54:23;;;;;;;3.40;0.43;;;;;;;8.71;100.00;101820.66;5021841;28;20471;-58
2023/02/04 03:56:50;;;;;;;36.03;1.40;;;;;;;9.03;100.00;101822.53;5025097;28;20863;-58
2023/02/04 03:59:16;;;;;;;3.90;1.37;;;;;;;8.93;100.00;101813.69;5029163;28;20459;-58
2023/02/04 04:01:43;;;;;;;1.07;0.97;;;;;;;8.87;100.00;101826.91;5034822;28;20960;-58
2023/02/04 04:04:09;;;;;;;11.53;0.87;;;;;;;8.84;100.00;101833.09;5028196;28;20494;-57
2023/02/04 04:06:36;;;;;;;0.67;0.30;;;;;;;9.18;99.53;101836.72;5033068;28;20445;-57
2023/02/04 04:09:03;;;;;;;5.10;1.37;;;;;;;8.79;99.33;101834.84;5022252;28;20518;-58
2023/02/04 04:11:30;;;;;;;1.97;0.83;;;;;;;8.88;99.20;101842.81;5027287;28;20456;-57
2023/02/04 04:13:57;;;;;;;3.67;1.40;;;;;;;8.83;98.68;101839.28;5021581;28;20479;-57
2023/02/04 04:16:23;;;;;;;8.63;1.47;;;;;;;8.69;99.57;101835.69;5022383;28;21038;-58
2023/02/04 04:18:49;;;;;;;3.90;0.47;;;;;;;8.77;99.54;101835.69;5028933;28;20834;-58
2023/02/04 04:21:16;;;;;;;0.60;0.50;;;;;;;8.85;99.33;101844.56;5027790;28;20462;-58
2023/02/04 04:23:42;;;;;;;5.93;1.33;;;;;;;8.79;98.38;101839.28;5025300;28;20476;-58
2023/02/04 04:26:09;;;;;;;1.37;1.07;;;;;;;9.01;98.96;101834.91;5022457;28;20454;-58
2023/02/04 04:28:35;;;;;;;0.97;0.70;;;;;;;8.70;99.08;101844.53;5028332;28;20461;-54
2023/02/04 04:31:02;;;;;;;1.03;0.73;;;;;;;8.89;98.63;101836.63;5027853;28;20922;-55
2023/02/04 04:33:28;;;;;;;4.17;1.77;;;;;;;8.74;98.22;101854.25;5027588;28;20503;-54
2023/02/04 04:35:55;;;;;;;4.33;2.10;;;;;;;8.78;98.14;101848.09;5027841;28;20452;-54
2023/02/04 04:38:21;;;;;;;1.73;0.80;;;;;;;8.83;98.17;101841.94;5021194;28;20562;-54
2023/02/04 04:40:47;;;;;;;1.47;0.90;;;;;;;8.73;98.76;101850.72;5027514;28;20506;-55
2023/02/04 04:43:14;;;;;;;3.23;1.13;;;;;;;8.74;98.29;101849.84;5027682;28;20459;-54
2023/02/04 04:45:40;;;;;;;0.73;0.73;;;;;;;8.65;98.46;101848.94;5027695;28;20955;-56
2023/02/04 04:48:07;;;;;;;12.73;1.30;;;;;;;8.65;99.06;101851.59;5020334;28;20448;-56
2023/02/04 04:50:33;;;;;;;3.20;0.67;;;;;;;8.94;98.54;101849.03;5026641;28;20452;-58
2023/02/04 04:53:00;;;;;;;0.93;0.93;;;;;;;8.64;97.86;101840.09;5026388;28;20488;-59
2023/02/04 04:55:27;;;;;;;16.77;1.30;;;;;;;8.62;98.38;101844.47;5026695;28;20478;-58
2023/02/04 04:57:53;;;;;;;0.87;0.87;;;;;;;8.58;98.87;101848.88;5021680;28;20495;-58
2023/02/04 05:00:20;;;;;;;0.60;0.43;;;;;;;8.59;98.58;101842.69;5026017;28;20460;-58
2023/02/04 05:02:47;;;;;;;8.83;1.77;;;;;;;8.61;98.93;101843.59;5026802;28;20880;-58
2023/02/04 05:05:13;;;;;;;0.40;0.27;;;;;;;8.66;97.83;101838.34;5040836;28;20459;-58
2023/02/04 05:07:40;;;;;;;1.33;1.23;;;;;;;8.77;98.12;101841.00;5015322;28;20456;-58
2023/02/04 05:10:07;;;;;;;1.10;1.10;;;;;;;8.80;96.21;101849.00;5026181;28;20452;-57
2023/02/04 05:12:33;;;;;;;5.07;1.33;;;;;;;8.84;96.13;101848.13;5018626;28;20559;-57
2023/02/04 05:14:59;;;;;;;0.73;0.73;;;;;;;8.66;97.08;101848.94;5027179;28;20487;-57
2023/02/04 05:17:26;;;;;;;5.30;1.53;;;;;;;9.01;96.18;101843.75;5026994;28;20996;-57
2023/02/04 05:19:54;;;;;;;0.50;0.50;;;;;;;8.93;95.47;101845.50;5020553;28;20448;-55
2023/02/04 05:22:20;;;;;;;1.13;1.03;;;;;;;9.01;94.19;101845.50;5024671;28;20593;-55
2023/02/04 05:24:46;;;;;;;1.67;0.50;;;;;;;8.95;94.42;101857.00;5027786;28;20476;-55
2023/02/04 05:27:13;;;;;;;1.40;1.13;;;;;;;8.79;94.76;101855.19;5023281;28;20538;-57
2023/02/04 05:29:39;;;;;;;5.00;1.03;;;;;;;8.83;94.85;101867.56;5033270;28;20483;-55
2023/02/04 05:32:06;;;;;;;4.87;1.13;;;;;;;8.59;96.31;101868.31;5023000;28;20517;-56
2023/02/04 05:34:32;;;;;;;6.10;1.43;;;;;;;8.76;96.72;101868.41;5019592;28;20532;-54
2023/02/04 05:36:59;;;;;;;3.37;0.90;;;;;;;8.60;95.94;101862.13;5025862;28;20922;-57
2023/02/04 05:39:26;;;;;;;0.80;0.70;;;;;;;8.72;95.95;101867.50;5028483;28;20457;-55
2023/02/04 05:41:53;;;;;;;0.73;0.73;;;;;;;8.76;96.31;101871.03;5023466;28;20458;-55
2023/02/04 05:44:19;;;;;;;1.83;1.70;;;;;;;8.70;96.24;101879.88;5021678;28;20483;-55
2023/02/04 05:46:46;;;;;;;2.93;1.20;;;;;;;8.57;96.91;101899.25;5027157;28;20444;-55
2023/02/04 05:49:12;;;;;;;12.70;2.20;;;;;;;8.78;96.80;101894.06;5021335;28;20452;-56
2023/02/04 05:51:39;;;;;;;2.17;1.00;;;;;;;8.54;98.07;101908.06;5024803;28;20452;-55
2023/02/04 05:54:06;;;;;;;1.10;0.90;;;;;;;8.64;97.40;101908.13;5026736;28;20899;-54
2023/02/04 05:56:32;;;;;;;0.70;0.67;;;;;;;8.44;98.28;101908.88;5023710;28;20541;-55
2023/02/04 05:58:59;;;;;;;8.67;2.27;;;;;;;8.74;97.25;101921.41;5019020;28;20555;-55
2023/02/04 06:01:25;;;;;;;1.23;1.13;;;;;;;8.56;98.93;101908.94;5015538;28;20906;-55
2023/02/04 06:03:52;;;;;;;1.93;0.87;;;;;;;8.54;98.52;101923.06;5036754;28;20470;-55
2023/02/04 06:06:18;;;;;;;1.90;1.77;;;;;;;8.63;98.05;101923.13;5035683;28;20453;-55
2023/02/04 06:08:45;;;;;;;1.20;1.07;;;;;;;8.65;97.53;101925.81;5027791;28;20587;-55
2023/02/04 06:11:11;;;;;;;2.37;1.07;;;;;;;8.69;98.54;101917.88;5021139;28;20458;-55
2023/02/04 06:13:37;;;;;;;0.87;0.80;;;;;;;8.51;98.75;101929.25;5029539;28;20472;-53
2023/02/04 06:16:04;;;;;;;0.93;0.93;;;;;;;8.34;100.00;101938.81;5022671;28;20447;-55
2023/02/04 06:18:30;;;;;;;3.53;3.27;;;;;;;8.22;100.00;101936.97;5029949;28;20532;-58
2023/02/04 06:20:57;;;;;;;2.10;1.30;;;;;;;8.08;100.00;101943.00;5023689;28;20454;-57
2023/02/04 06:23:23;;;;;;;10.53;0.60;;;;;;;8.08;100.00;101935.94;5020608;28;20451;-57
2023/02/04 06:25:50;;;;;;;0.60;0.60;;;;;;;7.80;100.00;101945.41;5034348;28;20893;-57
2023/02/04 06:28:16;;;;;;;1.53;1.43;;;;;;;7.74;100.00;101942.72;5021077;28;20447;-57
2023/02/04 06:30:43;;;;;;;0.60;0.60;;;;;;;7.70;100.00;101941.81;5024561;28;20456;-59
2023/02/04 06:33:09;;;;;;;8.33;1.73;;;;;;;7.89;100.00;101945.50;5028501;28;20515;-57
2023/02/04 06:35:36;;;;;;;0.67;0.60;;;;;;;8.01;100.00;101944.72;5034000;28;20522;-58
2023/02/04 06:38:02;;;;;;;4.33;1.93;;;;;;;8.10;100.00;101959.81;5020285;28;20569;-57
2023/02/04 06:40:29;;;;;;;3.07;1.03;;;;;;;8.16;100.00;101947.50;5023939;28;20979;-57
2023/02/04 06:42:56;;;;;;;7.50;0.63;;;;;;;8.21;100.00;101953.72;5026261;28;20453;-57
2023/02/04 06:45:22;;;;;;;1.43;1.27;;;;;;;8.40;100.00;101948.59;5023022;28;20898;-57
2023/02/04 06:47:49;;;;;;;12.80;1.87;;;;;;;8.29;100.00;101956.44;5024412;28;20804;-57
2023/02/04 06:50:18;;;;;;;1.33;1.23;;;;;;;8.57;100.00;101957.53;5029387;28;20458;-57
2023/02/04 06:52:48;;;;;;;4.57;2.83;;;;;;;8.72;99.76;101959.41;5032216;28;20819;-57
2023/02/04 06:55:16;;;;;;;4.10;1.80;;;;;;;8.39;100.00;101970.69;5021765;28;20476;-58
2023/02/04 06:57:42;;;;;;;1.73;1.63;;;;;;;8.29;100.00;101974.97;5019772;28;20495;-57
2023/02/04 07:00:10;;;;;;;2.70;2.53;;;;;;;8.20;100.00;101967.81;5023693;28;20455;-58
2023/02/04 07:02:38;;;;;;;0.80;0.70;;;;;;;8.25;100.00;101973.19;5019518;28;20498;-58
2023/02/04 07:05:05;;;;;;;1.70;1.13;;;;;;;8.19;100.00;101973.13;5044653;28;20463;-58
2023/02/04 07:07:32;;;;;;;1.13;0.60;;;;;;;8.18;100.00;101979.28;5019681;28;20446;-58
2023/02/04 07:09:58;;;;;;;4.10;1.40;;;;;;;8.31;100.00;101989.13;5019600;28;20507;-57
2023/02/04 07:12:25;;;;;;;1.50;1.40;;;;;;;8.18;100.00;101980.19;5025657;28;20463;-58
2023/02/04 07:14:51;;;;;;;7.37;1.50;;;;;;;7.97;100.00;101986.19;5025364;28;20479;-57
2023/02/04 07:17:18;;;;;;;0.73;0.67;;;;;;;7.98;100.00;102000.31;5019434;28;20491;-56
2023/02/04 07:19:44;;;;;;;5.83;2.30;;;;;;;7.82;100.00;101999.28;5035681;28;20447;-57
2023/02/04 07:22:10;;;;;;;3.97;2.97;;;;;;;7.73;100.00;102012.41;5024430;28;20521;-57
2023/02/04 07:24:37;;;;;;;15.47;2.50;;;;;;;7.61;100.00;102010.50;5024967;28;20472;-60
2023/02/04 07:27:04;;;;;;;2.30;1.23;;;;;;;7.59;100.00;102020.19;5037095;28;20450;-57
2023/02/04 07:29:30;;;;;;;16.37;2.73;;;;;;;7.54;100.00;102023.63;5024918;28;20452;-57
2023/02/04 07:31:57;;;;;;;0.73;0.60;;;;;;;7.61;100.00;102026.38;5030667;28;20547;-57
2023/02/04 07:34:23;;;;;;;3.03;1.40;;;;;;;7.62;100.00;102017.56;5037203;28;20833;-57
2023/02/04 07:36:50;;;;;;;1.00;0.90;;;;;;;7.66;100.00;102023.78;5024213;28;20463;-57
2023/02/04 07:39:16;;;;;;;2.30;1.47;;;;;;;7.62;100.00;102024.63;5024140;28;20457;-59
2023/02/04 07:41:43;;;;;;;0.70;0.53;;;;;;;7.64;100.00;102025.53;5030190;28;20456;-58
2023/02/04 07:44:09;;;;;;;1.23;0.67;;;;;;;7.62;100.00;102033.44;5020040;28;20483;-58
2023/02/04 07:46:36;;;;;;;1.70;1.60;;;;;;;7.66;100.00;102022.00;5029798;28;20457;-58
2023/02/04 07:49:03;;;;;;;4.47;1.67;;;;;;;7.71;100.00;102035.31;5023620;28;20467;-58
2023/02/04 07:51:29;;;;;;;5.40;1.13;;;;;;;7.70;100.00;102041.50;5036714;28;20545;-58
2023/02/04 07:53:56;;;;;;;3.20;2.10;;;;;;;7.68;100.00;102051.19;5023349;28;20468;-57
2023/02/04 07:56:22;;;;;;;1.40;1.30;;;;;;;7.77;100.00;102053.03;5028641;28;20491;-58
2023/02/04 07:58:49;;;;;;;1.30;1.20;;;;;;;7.78;100.00;102052.16;5029594;28;20570;-58
2023/02/04 08:01:15;;;;;;;8.00;1.40;;;;;;;7.79;100.00;102056.56;5024662;28;20502;-59
2023/02/04 08:03:42;;;;;;;7.07;1.20;;;;;;;7.84;100.00;102061.06;5024354;28;20503;-58
2023/02/04 08:06:09;;;;;;;8.00;2.20;;;;;;;7.91;100.00;102067.28;5040210;28;20547;-58
2023/02/04 08:08:35;;;;;;;4.50;1.77;;;;;;;7.90;100.00;102062.88;5029096;28;20475;-58
2023/02/04 08:11:02;;;;;;;1.50;1.40;;;;;;;7.91;100.00;102057.59;5024297;28;20502;-58
2023/02/04 08:15:58;;;;;;;4.57;2.30;;;;;;;8.03;100.00;102070.97;5013672;28;20964;-53
2023/02/04 08:18:24;;;;;;;1.77;1.67;;;;;;;8.07;100.00;102074.53;5014708;28;20596;-53
2023/02/04 08:20:51;;;;;;;5.50;2.47;;;;;;;8.07;100.00;102079.81;5015253;28;20511;-53
2023/02/04 08:23:17;;;;;;;1.17;0.97;;;;;;;8.05;100.00;102078.03;5014782;28;20454;-53
2023/02/04 08:25:44;;;;;;;11.50;3.00;;;;;;;8.10;100.00;102086.94;5014749;28;20542;-53
2023/02/04 08:28:11;;;;;;;6.30;2.00;;;;;;;8.06;100.00;102086.00;5014876;28;20880;-53
2023/02/04 08:30:37;;;;;;;7.67;3.33;;;;;;;8.25;100.00;102085.34;5014810;28;20453;-53
2023/02/04 08:33:04;;;;;;;2.83;2.60;;;;;;;8.28;100.00;102084.47;5014845;28;20510;-53
2023/02/04 08:35:30;;;;;;;5.90;1.93;;;;;;;8.36;100.00;102081.91;5014706;28;20468;-53
2023/02/04 08:37:57;;;;;;;1.73;1.63;;;;;;;8.35;100.00;102081.03;5014540;28;21254;-53
2023/02/04 08:40:23;;;;;;;2.03;1.90;;;;;;;8.30;100.00;102090.66;5014482;28;20452;-53
2023/02/04 08:42:49;;;;;;;3.50;2.43;;;;;;;8.30;100.00;102078.31;5014335;28;20456;-53
2023/02/04 08:45:16;;;;;;;3.17;2.87;;;;;;;8.52;100.00;102083.84;5014539;28;20476;-53
2023/02/04 08:47:42;;;;;;;3.07;2.87;;;;;;;8.48;100.00;102082.91;5011724;28;20559;-53
2023/02/04 08:50:10;;;;;;;5.00;2.17;;;;;;;8.60;100.00;102077.72;5004114;28;20449;-53
2023/02/04 08:52:36;;;;;;;2.50;1.90;;;;;;;8.73;100.00;102084.00;5014203;28;20555;-53
2023/02/04 08:55:03;;;;;;;7.20;3.17;;;;;;;8.97;100.00;102083.31;5014147;28;20472;-53
2023/02/04 08:57:30;;;;;;;13.60;2.97;;;;;;;8.88;100.00;102094.72;5013836;28;20484;-53
2023/02/04 08:59:56;;;;;;;18.87;1.80;;;;;;;8.82;100.00;102092.03;5014477;28;20459;-53
2023/02/04 09:02:23;;;;;;;4.40;2.10;;;;;;;8.94;100.00;102095.66;5014053;28;20949;-53
2023/02/04 09:04:49;;;;;;;2.70;1.50;;;;;;;9.09;100.00;102099.31;5024543;28;20471;-53
2023/02/04 09:07:16;;;;;;;3.10;1.60;;;;;;;9.25;99.05;102094.09;5003339;28;20453;-53
2023/02/04 09:09:42;;;;;;;6.97;2.30;;;;;;;9.20;99.60;102102.03;5014184;28;20448;-53
2023/02/04 09:12:09;;;;;;;2.23;2.13;;;;;;;9.46;98.07;102102.19;5010088;28;21087;-53
2023/02/04 09:14:35;;;;;;;8.30;1.80;;;;;;;9.63;97.22;102107.59;5004664;28;20488;-53
2023/02/04 09:17:03;;;;;;;5.23;1.67;;;;;;;9.63;96.97;102111.13;5014045;28;20487;-53
2023/02/04 09:19:29;;;;;;;2.13;1.70;;;;;;;9.58;97.20;102101.34;5002716;28;21001;-53
2023/02/04 09:21:55;;;;;;;1.47;1.37;;;;;;;9.61;96.91;102117.31;5011820;28;20456;-53
2023/02/04 09:24:22;;;;;;;2.23;1.20;;;;;;;9.57;97.48;102105.75;5013632;28;20481;-53
2023/02/04 09:26:49;;;;;;;4.70;2.23;;;;;;;9.48;97.88;102113.69;5013676;28;20449;-53
2023/02/04 09:29:15;;;;;;;2.10;1.90;;;;;;;9.47;97.84;102117.25;5013812;28;20449;-53
2023/02/04 09:31:42;;;;;;;2.90;2.43;;;;;;;9.49;97.96;102116.38;5013454;28;20455;-53
2023/02/04 09:34:08;;;;;;;8.07;4.10;;;;;;;9.53;96.89;102116.38;5013671;28;20500;-53
2023/02/04 09:36:37;;;;;;;2.37;1.20;;;;;;;9.66;96.95;102121.75;5013494;28;20456;-53
2023/02/04 09:39:04;;;;;;;2.33;2.13;;;;;;;9.70;96.67;102120.88;5013360;28;20845;-53
2023/02/04 09:41:37;;;;;;;15.73;2.17;;;;;;;9.55;95.83;102127.88;5013029;28;20488;-53
2023/02/04 09:44:12;;;;;;;31.27;1.47;;;;;;;9.61;96.14;102133.25;5013482;28;20472;-53
2023/02/04 09:46:43;;;;;;;2.00;1.00;;;;;;;9.66;94.94;102124.41;4994051;28;20869;-53
2023/02/04 09:49:10;;;;;;;6.87;1.80;;;;;;;9.59;94.76;102127.91;4995378;28;20446;-53
2023/02/04 09:51:36;;;;;;;11.93;1.97;;;;;;;9.62;94.67;102137.66;5013110;28;20448;-53
2023/02/04 09:54:13;;;;;;;13.70;2.40;;;;;;;9.56;94.88;102137.63;5013472;28;20861;-53
2023/02/04 09:56:41;;;;;;;7.20;3.40;;;;;;;9.83;94.50;102148.38;5013609;28;20448;-53
2023/02/04 09:59:28;;;;;;;2.63;1.67;;;;;;;9.87;93.76;102162.53;5013224;28;20492;-53
2023/02/04 10:01:59;;;;;;;6.23;1.63;;;;;;;9.67;94.65;102158.03;5013332;28;20475;-53
2023/02/04 10:04:26;;;;;;;45.10;2.80;;;;;;;9.61;94.29;102168.63;5008031;28;20902;-53
2023/02/04 10:06:57;;;;;;;2.60;2.17;;;;;;;9.78;93.96;102166.06;5005594;28;20878;-53
2023/02/04 10:09:23;;;;;;;1.20;1.13;;;;;;;9.92;94.03;102163.47;5013165;28;20449;-53
2023/02/04 10:11:50;;;;;;;16.30;2.20;;;;;;;10.01;93.36;102166.19;5011761;28;20461;-53
2023/02/04 10:14:20;;;;;;;31.97;2.60;;;;;;;10.24;93.21;102163.63;5000737;28;20484;-53
2023/02/04 10:16:52;;;;;;;2.20;2.00;;;;;;;10.32;90.99;102167.19;5012522;28;20543;-53
2023/02/04 10:19:19;;;;;;;2.60;1.90;;;;;;;10.12;89.98;102169.75;5003824;28;20495;-54
2023/02/04 10:21:46;;;;;;;10.33;2.60;;;;;;;10.37;90.02;102174.28;5008787;28;20457;-54
2023/02/04 10:24:18;;;;;;;2.20;1.57;;;;;;;10.14;89.71;102170.63;5012728;28;20472;-53
2023/02/04 10:26:45;;;;;;;23.60;1.33;;;;;;;10.39;90.48;102174.28;5012602;28;20453;-53
2023/02/04 10:29:24;;;;;;;5.53;1.37;;;;;;;10.47;87.91;102175.22;5012627;28;20451;-53
2023/02/04 10:31:52;;;;;;;14.90;2.50;;;;;;;10.42;88.78;102168.13;5012627;28;20478;-53
2023/02/04 10:34:38;;;;;;;2.23;1.53;;;;;;;10.55;87.27;102172.53;5012595;28;21019;-54
2023/02/04 10:37:18;;;;;;;3.33;1.27;;;;;;;10.41;85.95;102171.63;4993110;28;20457;-53
2023/02/04 10:39:44;;;;;;;3.10;1.07;;;;;;;10.16;88.23;102171.53;5009206;28;20487;-53
2023/02/04 10:42:21;;;;;;;6.47;2.17;;;;;;;10.45;86.78;102162.81;5012789;28;20452;-53
2023/02/04 10:44:47;;;;;;;11.27;2.17;;;;;;;10.78;86.11;102154.84;5012616;28;20522;-54
2023/02/04 10:47:18;;;;;;;6.30;2.00;;;;;;;10.75;85.05;102154.84;5012362;28;20798;-53
2023/02/04 10:50:01;;;;;;;14.33;3.20;;;;;;;10.90;84.04;102165.50;4999256;28;20449;-53
2023/02/04 10:52:39;;;;;;;2.60;1.43;;;;;;;10.98;83.30;102158.44;5012531;28;20447;-54
2023/02/04 10:55:13;;;;;;;10.43;2.20;;;;;;;11.00;84.79;102160.19;5014905;28;20510;-54
2023/02/04 10:57:42;;;;;;;4.03;2.10;;;;;;;10.92;83.87;102158.41;5016526;28;20452;-54
2023/02/04 11:00:20;;;;;;;15.33;3.23;;;;;;;11.00;83.25;102160.19;5016456;28;20992;-54
2023/02/04 11:02:54;;;;;;;14.27;2.07;;;;;;;10.78;82.52;102152.19;5016614;28;20543;-54
2023/02/04 11:05:23;;;;;;;10.27;2.00;;;;;;;10.55;82.64;102153.94;5028880;28;20503;-54
2023/02/04 11:07:50;;;;;;;2.87;1.63;;;;;;;10.42;81.33;102155.72;5005136;28;20462;-54
2023/02/04 11:10:19;;;;;;;2.90;0.93;;;;;;;10.50;81.44;102151.28;5016312;28;20452;-54
2023/02/04 11:12:59;;;;;;;12.47;2.37;;;;;;;10.38;81.15;102159.22;5007181;28;20464;-53
2023/02/04 11:15:38;;;;;;;4.00;1.60;;;;;;;10.55;82.03;102167.22;5014075;28;20577;-54
2023/02/04 11:18:24;;;;;;;7.67;2.30;;;;;;;10.52;81.72;102154.81;5016244;28;20488;-54
2023/02/04 11:20:54;;;;;;;0.77;0.60;;;;;;;10.58;81.79;102161.94;5005586;28;20452;-54
2023/02/04 11:23:28;;;;;;;1.37;1.13;;;;;;;10.35;80.68;102165.44;5016053;28;21479;-54
2023/02/04 11:26:09;;;;;;;4.60;1.80;;;;;;;10.31;80.81;102168.97;5016197;28;20572;-53
2023/02/04 11:29:08;;;;;;;0.60;0.53;;;;;;;10.57;83.17;102165.47;5016050;28;20448;-53
2023/02/04 11:31:46;;;;;;;10.90;1.70;;;;;;;10.81;80.48;102160.16;5015760;28;20547;-54